Finikia — YKRO — position and weather

sailwx.info

Track history (hours):
 
Tides and Currents Weather Stations Pressure Air Temp Water Temp Dewpoint Dewpoint Depression Visibility Wind Speed Wind Dir Waves Ship Positions

Finikia

Last reported at 2017-Jul-25 19:36 UTC. Time now 2017-Jul-25 22:28 UTC.
Position N 34°27' E 035°50'.

Length 138 m; draft 8 m.

Type: Cargo ship. MMSI: 468395000.

Date/timePositionNaut miles runAvg speedWind from/ knotsBaromVisibWave heightAir tempDewpointWater temp
2017-Jul-25 19:36N 34°27' E 035°50'0 0.1
2017-Jul-25 19:30N 34°27' E 035°50'0 0.0
2017-Jul-25 19:00N 34°27' E 035°50'0 0.0
2017-Jul-25 18:30N 34°27' E 035°50'0 0.0
2017-Jul-25 18:00N 34°27' E 035°50'0 0.0
2017-Jul-25 17:30N 34°27' E 035°50'0 0.0
2017-Jul-25 17:00N 34°27' E 035°50'0 0.0
2017-Jul-25 16:30N 34°27' E 035°50'0 0.0
2017-Jul-25 15:57N 34°27' E 035°50'0 0.0
2017-Jul-25 02:57N 34°27' E 035°50'0 0.0
2017-Jul-24 15:57N 34°27' E 035°50'  
2017-Jul-19 16:48N 34°27' E 035°50'0 0.0
2017-Jul-19 16:30N 34°27' E 035°50'0 0.0
2017-Jul-19 15:24N 34°27' E 035°50'0 0.0
2017-Jul-19 15:00N 34°27' E 035°50'0 0.0
2017-Jul-19 06:43N 34°28' E 035°49'1 2.5
2017-Jul-19 06:26N 34°28' E 035°50'27 3.0
2017-Jul-18 21:23N 34°42' E 035°22'512.0
2017-Jul-18 21:00N 34°46' E 035°19'612.2
2017-Jul-18 20:30N 34°51' E 035°16'510.2
2017-Jul-18 20:01N 34°55' E 035°12'1611.8
2017-Jul-18 18:37N 35°10' E 035°03'312.4
2017-Jul-18 18:22N 35°12' E 035°01'412.4
2017-Jul-18 18:00N 35°16' E 034°58'1312.4
2017-Jul-18 16:58N 35°27' E 034°50'2211.8
2017-Jul-18 15:04N 35°46' E 034°35'112.7
2017-Jul-18 15:00N 35°46' E 034°34'13312.3
2017-Jul-18 04:11N 35°55' E 031°51'212.8
2017-Jul-18 04:00N 35°55' E 031°48'712.7
2017-Jul-18 03:26N 35°56' E 031°39'612.8
2017-Jul-18 02:59N 35°56' E 031°32'612.8
2017-Jul-18 02:30N 35°56' E 031°24'612.8
2017-Jul-18 02:00N 35°57' E 031°17'712.8
2017-Jul-18 01:28N 35°57' E 031°08'612.8
2017-Jul-18 01:00N 35°58' E 031°01'612.5
2017-Jul-18 00:30N 35°58' E 030°53'612.3
2017-Jul-18 00:00N 35°58' E 030°45'612.1
2017-Jul-17 23:30N 35°59' E 030°38'611.9
2017-Jul-17 22:59N 35°59' E 030°30'3811.8
2017-Jul-17 19:48N 36°02' E 029°44'311.3
2017-Jul-17 19:30N 36°02' E 029°40'611.4
2017-Jul-17 19:00N 36°02' E 029°33'711.2
2017-Jul-17 18:26N 36°04' E 029°25'711.4
2017-Jul-17 17:48N 36°07' E 029°17'18011.4
2017-Jul-17 02:04N 37°26' E 025°55'111.5
2017-Jul-17 02:00N 37°26' E 025°55'611.5
2017-Jul-17 01:30N 37°30' E 025°49'611.6
2017-Jul-17 01:00N 37°35' E 025°47'612.6
2017-Jul-17 00:29N 37°42' E 025°47'  
Track history (hours):
 
Tides and Currents Weather Stations Pressure Air Temp Water Temp Dewpoint Dewpoint Depression Visibility Wind Speed Wind Dir Waves Ship Positions

Finikia

Last reported at 2017-Jul-25 19:36 UTC. Time now 2017-Jul-25 22:28 UTC.
Position N 34°27' E 035°50'.

Length 138 m; draft 8 m.

Type: Cargo ship. MMSI: 468395000.

Date/timePositionNaut miles runAvg speedWind from/ knotsBaromVisibWave heightAir tempDewpointWater temp
2017-Jul-25 19:36N 34°27' E 035°50'0 0.1
2017-Jul-25 19:30N 34°27' E 035°50'0 0.0
2017-Jul-25 19:00N 34°27' E 035°50'0 0.0
2017-Jul-25 18:30N 34°27' E 035°50'0 0.0
2017-Jul-25 18:00N 34°27' E 035°50'0 0.0
2017-Jul-25 17:30N 34°27' E 035°50'0 0.0
2017-Jul-25 17:00N 34°27' E 035°50'0 0.0
2017-Jul-25 16:30N 34°27' E 035°50'0 0.0
2017-Jul-25 15:57N 34°27' E 035°50'0 0.0
2017-Jul-25 02:57N 34°27' E 035°50'0 0.0
2017-Jul-24 15:57N 34°27' E 035°50'  
2017-Jul-19 16:48N 34°27' E 035°50'0 0.0
2017-Jul-19 16:30N 34°27' E 035°50'0 0.0
2017-Jul-19 15:24N 34°27' E 035°50'0 0.0
2017-Jul-19 15:00N 34°27' E 035°50'0 0.0
2017-Jul-19 06:43N 34°28' E 035°49'1 2.5
2017-Jul-19 06:26N 34°28' E 035°50'27 3.0
2017-Jul-18 21:23N 34°42' E 035°22'512.0
2017-Jul-18 21:00N 34°46' E 035°19'612.2
2017-Jul-18 20:30N 34°51' E 035°16'510.2
2017-Jul-18 20:01N 34°55' E 035°12'1611.8
2017-Jul-18 18:37N 35°10' E 035°03'312.4
2017-Jul-18 18:22N 35°12' E 035°01'412.4
2017-Jul-18 18:00N 35°16' E 034°58'1312.4
2017-Jul-18 16:58N 35°27' E 034°50'2211.8
2017-Jul-18 15:04N 35°46' E 034°35'112.7
2017-Jul-18 15:00N 35°46' E 034°34'13312.3
2017-Jul-18 04:11N 35°55' E 031°51'212.8
2017-Jul-18 04:00N 35°55' E 031°48'712.7
2017-Jul-18 03:26N 35°56' E 031°39'612.8
2017-Jul-18 02:59N 35°56' E 031°32'612.8
2017-Jul-18 02:30N 35°56' E 031°24'612.8
2017-Jul-18 02:00N 35°57' E 031°17'712.8
2017-Jul-18 01:28N 35°57' E 031°08'612.8
2017-Jul-18 01:00N 35°58' E 031°01'612.5
2017-Jul-18 00:30N 35°58' E 030°53'612.3
2017-Jul-18 00:00N 35°58' E 030°45'612.1
2017-Jul-17 23:30N 35°59' E 030°38'611.9
2017-Jul-17 22:59N 35°59' E 030°30'3811.8
2017-Jul-17 19:48N 36°02' E 029°44'311.3
2017-Jul-17 19:30N 36°02' E 029°40'611.4
2017-Jul-17 19:00N 36°02' E 029°33'711.2
2017-Jul-17 18:26N 36°04' E 029°25'711.4
2017-Jul-17 17:48N 36°07' E 029°17'18011.4
2017-Jul-17 02:04N 37°26' E 025°55'111.5
2017-Jul-17 02:00N 37°26' E 025°55'611.5
2017-Jul-17 01:30N 37°30' E 025°49'611.6
2017-Jul-17 01:00N 37°35' E 025°47'612.6
2017-Jul-17 00:29N 37°42' E 025°47'  

Dump ship's entire track history